sensor_id;sensor_type;location;lat;lon;timestamp;P1;durP1;ratioP1;P2;durP2;ratioP2
37609;SDS011;23457;51.966;8.230;2023-06-10T00:00:20;8.40;;;5.88;;
37609;SDS011;23457;51.966;8.230;2023-06-10T00:02:47;12.13;;;5.82;;
37609;SDS011;23457;51.966;8.230;2023-06-10T00:05:14;7.78;;;5.72;;
37609;SDS011;23457;51.966;8.230;2023-06-10T00:07:42;9.32;;;5.68;;
37609;SDS011;23457;51.966;8.230;2023-06-10T00:10:09;8.27;;;5.53;;
37609;SDS011;23457;51.966;8.230;2023-06-10T00:12:38;11.02;;;5.63;;
37609;SDS011;23457;51.966;8.230;2023-06-10T00:15:05;10.20;;;5.88;;
37609;SDS011;23457;51.966;8.230;2023-06-10T00:17:33;7.68;;;5.68;;
37609;SDS011;23457;51.966;8.230;2023-06-10T00:20:00;9.38;;;5.32;;
37609;SDS011;23457;51.966;8.230;2023-06-10T00:22:31;9.00;;;5.43;;
37609;SDS011;23457;51.966;8.230;2023-06-10T00:24:58;9.65;;;5.63;;
37609;SDS011;23457;51.966;8.230;2023-06-10T00:27:25;13.15;;;5.28;;
37609;SDS011;23457;51.966;8.230;2023-06-10T00:29:59;6.40;;;4.97;;
37609;SDS011;23457;51.966;8.230;2023-06-10T00:32:26;11.75;;;5.90;;
37609;SDS011;23457;51.966;8.230;2023-06-10T00:34:54;6.63;;;5.15;;
37609;SDS011;23457;51.966;8.230;2023-06-10T00:37:21;12.02;;;5.03;;
37609;SDS011;23457;51.966;8.230;2023-06-10T00:39:48;12.48;;;5.47;;
37609;SDS011;23457;51.966;8.230;2023-06-10T00:42:15;13.10;;;5.28;;
37609;SDS011;23457;51.966;8.230;2023-06-10T00:44:41;7.85;;;5.15;;
37609;SDS011;23457;51.966;8.230;2023-06-10T00:47:09;10.35;;;5.15;;
37609;SDS011;23457;51.966;8.230;2023-06-10T00:49:36;10.00;;;5.32;;
37609;SDS011;23457;51.966;8.230;2023-06-10T00:52:03;8.57;;;5.20;;
37609;SDS011;23457;51.966;8.230;2023-06-10T00:54:32;6.72;;;5.10;;
37609;SDS011;23457;51.966;8.230;2023-06-10T00:57:02;8.00;;;5.22;;
37609;SDS011;23457;51.966;8.230;2023-06-10T00:59:30;8.13;;;5.15;;
37609;SDS011;23457;51.966;8.230;2023-06-10T01:01:58;9.60;;;5.28;;
37609;SDS011;23457;51.966;8.230;2023-06-10T01:04:25;10.27;;;5.35;;
37609;SDS011;23457;51.966;8.230;2023-06-10T01:06:54;8.65;;;5.10;;
37609;SDS011;23457;51.966;8.230;2023-06-10T01:09:38;11.82;;;5.25;;
37609;SDS011;23457;51.966;8.230;2023-06-10T01:15:06;10.38;;;5.45;;
37609;SDS011;23457;51.966;8.230;2023-06-10T01:17:53;7.38;;;5.00;;
37609;SDS011;23457;51.966;8.230;2023-06-10T01:20:30;6.80;;;4.97;;
37609;SDS011;23457;51.966;8.230;2023-06-10T01:22:59;9.52;;;5.30;;
37609;SDS011;23457;51.966;8.230;2023-06-10T01:25:27;11.95;;;5.05;;
37609;SDS011;23457;51.966;8.230;2023-06-10T01:33:51;11.98;;;5.47;;
37609;SDS011;23457;51.966;8.230;2023-06-10T01:36:19;6.90;;;4.78;;
37609;SDS011;23457;51.966;8.230;2023-06-10T01:38:48;9.57;;;5.40;;
37609;SDS011;23457;51.966;8.230;2023-06-10T01:41:17;11.40;;;4.97;;
37609;SDS011;23457;51.966;8.230;2023-06-10T01:43:45;7.93;;;4.72;;
37609;SDS011;23457;51.966;8.230;2023-06-10T01:46:13;9.40;;;5.45;;
37609;SDS011;23457;51.966;8.230;2023-06-10T01:48:41;11.73;;;5.10;;
37609;SDS011;23457;51.966;8.230;2023-06-10T01:51:08;8.10;;;4.72;;
37609;SDS011;23457;51.966;8.230;2023-06-10T01:53:35;9.10;;;5.32;;
37609;SDS011;23457;51.966;8.230;2023-06-10T01:56:02;6.60;;;4.68;;
37609;SDS011;23457;51.966;8.230;2023-06-10T01:58:29;9.20;;;5.03;;
37609;SDS011;23457;51.966;8.230;2023-06-10T02:00:56;10.30;;;4.95;;
37609;SDS011;23457;51.966;8.230;2023-06-10T02:03:23;9.45;;;4.75;;
37609;SDS011;23457;51.966;8.230;2023-06-10T02:05:50;7.82;;;4.40;;
37609;SDS011;23457;51.966;8.230;2023-06-10T02:08:17;8.63;;;5.28;;
37609;SDS011;23457;51.966;8.230;2023-06-10T02:10:44;8.07;;;5.43;;
37609;SDS011;23457;51.966;8.230;2023-06-10T02:13:10;7.25;;;4.50;;
37609;SDS011;23457;51.966;8.230;2023-06-10T02:15:38;6.72;;;4.38;;
37609;SDS011;23457;51.966;8.230;2023-06-10T02:18:04;8.38;;;5.07;;
37609;SDS011;23457;51.966;8.230;2023-06-10T02:20:32;11.98;;;4.93;;
37609;SDS011;23457;51.966;8.230;2023-06-10T02:22:59;7.97;;;4.90;;
37609;SDS011;23457;51.966;8.230;2023-06-10T02:25:26;17.80;;;5.40;;
37609;SDS011;23457;51.966;8.230;2023-06-10T02:27:53;10.70;;;5.45;;
37609;SDS011;23457;51.966;8.230;2023-06-10T02:30:20;6.78;;;4.95;;
37609;SDS011;23457;51.966;8.230;2023-06-10T02:32:46;9.65;;;5.40;;
37609;SDS011;23457;51.966;8.230;2023-06-10T02:35:16;9.20;;;5.10;;
37609;SDS011;23457;51.966;8.230;2023-06-10T02:37:44;9.80;;;5.43;;
37609;SDS011;23457;51.966;8.230;2023-06-10T02:40:11;9.25;;;4.65;;
37609;SDS011;23457;51.966;8.230;2023-06-10T02:42:38;8.85;;;4.78;;
37609;SDS011;23457;51.966;8.230;2023-06-10T02:45:05;8.52;;;4.68;;
37609;SDS011;23457;51.966;8.230;2023-06-10T02:47:38;8.98;;;4.90;;
37609;SDS011;23457;51.966;8.230;2023-06-10T02:50:07;7.55;;;4.82;;
37609;SDS011;23457;51.966;8.230;2023-06-10T02:52:40;10.50;;;5.50;;
37609;SDS011;23457;51.966;8.230;2023-06-10T02:55:07;10.60;;;5.95;;
37609;SDS011;23457;51.966;8.230;2023-06-10T02:57:42;9.55;;;5.43;;
37609;SDS011;23457;51.966;8.230;2023-06-10T03:00:09;7.32;;;5.20;;
37609;SDS011;23457;51.966;8.230;2023-06-10T03:02:39;8.75;;;5.03;;
37609;SDS011;23457;51.966;8.230;2023-06-10T03:05:09;10.50;;;4.95;;
37609;SDS011;23457;51.966;8.230;2023-06-10T03:07:43;7.90;;;5.47;;
37609;SDS011;23457;51.966;8.230;2023-06-10T03:10:10;12.63;;;5.78;;
37609;SDS011;23457;51.966;8.230;2023-06-10T03:12:39;13.40;;;5.78;;
37609;SDS011;23457;51.966;8.230;2023-06-10T03:15:06;15.05;;;5.50;;
37609;SDS011;23457;51.966;8.230;2023-06-10T03:17:34;12.10;;;5.25;;
37609;SDS011;23457;51.966;8.230;2023-06-10T03:20:02;8.45;;;5.22;;
37609;SDS011;23457;51.966;8.230;2023-06-10T03:22:32;10.23;;;5.82;;
37609;SDS011;23457;51.966;8.230;2023-06-10T03:25:05;13.50;;;5.78;;
37609;SDS011;23457;51.966;8.230;2023-06-10T03:27:33;14.02;;;5.95;;
37609;SDS011;23457;51.966;8.230;2023-06-10T03:30:06;11.23;;;5.80;;
37609;SDS011;23457;51.966;8.230;2023-06-10T03:32:33;11.57;;;6.10;;
37609;SDS011;23457;51.966;8.230;2023-06-10T03:35:00;8.82;;;6.57;;
37609;SDS011;23457;51.966;8.230;2023-06-10T03:37:29;9.35;;;5.13;;
37609;SDS011;23457;51.966;8.230;2023-06-10T03:39:55;10.77;;;5.20;;
37609;SDS011;23457;51.966;8.230;2023-06-10T03:42:22;11.73;;;5.32;;
37609;SDS011;23457;51.966;8.230;2023-06-10T03:44:49;12.20;;;5.68;;
37609;SDS011;23457;51.966;8.230;2023-06-10T03:47:16;11.73;;;5.22;;
37609;SDS011;23457;51.966;8.230;2023-06-10T03:49:43;9.07;;;5.72;;
37609;SDS011;23457;51.966;8.230;2023-06-10T03:52:11;10.57;;;5.97;;
37609;SDS011;23457;51.966;8.230;2023-06-10T03:54:37;9.63;;;5.85;;
37609;SDS011;23457;51.966;8.230;2023-06-10T03:57:04;7.28;;;5.32;;
37609;SDS011;23457;51.966;8.230;2023-06-10T03:59:32;7.57;;;5.65;;
37609;SDS011;23457;51.966;8.230;2023-06-10T04:01:59;9.77;;;5.45;;
37609;SDS011;23457;51.966;8.230;2023-06-10T04:04:27;13.10;;;6.13;;
37609;SDS011;23457;51.966;8.230;2023-06-10T04:06:53;12.43;;;6.13;;
37609;SDS011;23457;51.966;8.230;2023-06-10T04:09:21;8.45;;;5.78;;
37609;SDS011;23457;51.966;8.230;2023-06-10T04:11:48;14.02;;;6.43;;
37609;SDS011;23457;51.966;8.230;2023-06-10T04:14:15;9.52;;;5.93;;
37609;SDS011;23457;51.966;8.230;2023-06-10T04:16:42;11.63;;;6.13;;
37609;SDS011;23457;51.966;8.230;2023-06-10T04:19:10;10.02;;;5.97;;
37609;SDS011;23457;51.966;8.230;2023-06-10T04:21:37;9.73;;;5.82;;
37609;SDS011;23457;51.966;8.230;2023-06-10T04:24:04;10.05;;;6.15;;
37609;SDS011;23457;51.966;8.230;2023-06-10T04:26:32;12.27;;;5.63;;
37609;SDS011;23457;51.966;8.230;2023-06-10T04:29:01;11.67;;;6.17;;
37609;SDS011;23457;51.966;8.230;2023-06-10T04:31:29;10.30;;;5.80;;
37609;SDS011;23457;51.966;8.230;2023-06-10T04:33:56;10.75;;;6.18;;
37609;SDS011;23457;51.966;8.230;2023-06-10T04:36:24;9.13;;;5.80;;
37609;SDS011;23457;51.966;8.230;2023-06-10T04:38:50;8.40;;;5.47;;
37609;SDS011;23457;51.966;8.230;2023-06-10T04:41:18;10.27;;;5.90;;
37609;SDS011;23457;51.966;8.230;2023-06-10T04:43:45;7.72;;;5.35;;
37609;SDS011;23457;51.966;8.230;2023-06-10T04:46:13;9.68;;;5.68;;
37609;SDS011;23457;51.966;8.230;2023-06-10T04:48:40;9.25;;;5.72;;
37609;SDS011;23457;51.966;8.230;2023-06-10T04:51:08;12.47;;;5.50;;
37609;SDS011;23457;51.966;8.230;2023-06-10T04:53:35;11.00;;;5.63;;
37609;SDS011;23457;51.966;8.230;2023-06-10T04:56:02;8.55;;;5.07;;
37609;SDS011;23457;51.966;8.230;2023-06-10T04:58:29;10.00;;;5.50;;
37609;SDS011;23457;51.966;8.230;2023-06-10T05:00:56;7.35;;;5.30;;
37609;SDS011;23457;51.966;8.230;2023-06-10T05:03:23;8.73;;;4.95;;
37609;SDS011;23457;51.966;8.230;2023-06-10T05:05:50;9.35;;;5.15;;
37609;SDS011;23457;51.966;8.230;2023-06-10T05:08:17;9.50;;;5.45;;
37609;SDS011;23457;51.966;8.230;2023-06-10T05:10:44;8.93;;;4.85;;
37609;SDS011;23457;51.966;8.230;2023-06-10T05:13:11;7.85;;;4.63;;
37609;SDS011;23457;51.966;8.230;2023-06-10T05:15:37;8.82;;;4.80;;
37609;SDS011;23457;51.966;8.230;2023-06-10T05:18:04;12.07;;;5.18;;
37609;SDS011;23457;51.966;8.230;2023-06-10T05:20:31;13.50;;;5.70;;
37609;SDS011;23457;51.966;8.230;2023-06-10T05:22:57;10.25;;;4.93;;
37609;SDS011;23457;51.966;8.230;2023-06-10T05:25:25;13.35;;;4.88;;
37609;SDS011;23457;51.966;8.230;2023-06-10T05:27:53;8.82;;;4.95;;
37609;SDS011;23457;51.966;8.230;2023-06-10T05:30:19;11.15;;;4.68;;
37609;SDS011;23457;51.966;8.230;2023-06-10T05:32:48;12.80;;;5.68;;
37609;SDS011;23457;51.966;8.230;2023-06-10T05:35:14;12.85;;;4.90;;
37609;SDS011;23457;51.966;8.230;2023-06-10T05:37:41;10.07;;;5.05;;
37609;SDS011;23457;51.966;8.230;2023-06-10T05:40:08;8.77;;;4.75;;
37609;SDS011;23457;51.966;8.230;2023-06-10T05:42:37;9.48;;;4.55;;
37609;SDS011;23457;51.966;8.230;2023-06-10T05:45:03;5.20;;;4.25;;
37609;SDS011;23457;51.966;8.230;2023-06-10T05:47:32;8.85;;;4.68;;
37609;SDS011;23457;51.966;8.230;2023-06-10T05:49:59;11.02;;;4.35;;
37609;SDS011;23457;51.966;8.230;2023-06-10T05:52:26;7.15;;;4.10;;
37609;SDS011;23457;51.966;8.230;2023-06-10T05:54:52;6.85;;;4.18;;
37609;SDS011;23457;51.966;8.230;2023-06-10T05:57:20;7.05;;;4.20;;
37609;SDS011;23457;51.966;8.230;2023-06-10T05:59:47;7.50;;;4.05;;
37609;SDS011;23457;51.966;8.230;2023-06-10T06:02:13;9.30;;;4.10;;
37609;SDS011;23457;51.966;8.230;2023-06-10T06:04:40;8.85;;;4.32;;
37609;SDS011;23457;51.966;8.230;2023-06-10T06:07:07;8.93;;;3.83;;
37609;SDS011;23457;51.966;8.230;2023-06-10T06:09:34;8.00;;;4.10;;
37609;SDS011;23457;51.966;8.230;2023-06-10T06:14:30;9.30;;;3.83;;
37609;SDS011;23457;51.966;8.230;2023-06-10T06:16:57;6.93;;;3.75;;
37609;SDS011;23457;51.966;8.230;2023-06-10T06:19:24;7.13;;;3.50;;
37609;SDS011;23457;51.966;8.230;2023-06-10T06:21:51;7.95;;;4.03;;
37609;SDS011;23457;51.966;8.230;2023-06-10T06:24:17;6.85;;;3.95;;
37609;SDS011;23457;51.966;8.230;2023-06-10T06:26:44;9.85;;;3.83;;
37609;SDS011;23457;51.966;8.230;2023-06-10T06:29:11;8.10;;;4.07;;
37609;SDS011;23457;51.966;8.230;2023-06-10T06:31:38;7.55;;;3.20;;
37609;SDS011;23457;51.966;8.230;2023-06-10T06:34:04;6.10;;;3.65;;
37609;SDS011;23457;51.966;8.230;2023-06-10T06:36:31;8.13;;;4.03;;
37609;SDS011;23457;51.966;8.230;2023-06-10T06:38:58;7.72;;;3.50;;
37609;SDS011;23457;51.966;8.230;2023-06-10T06:41:28;8.32;;;3.20;;
37609;SDS011;23457;51.966;8.230;2023-06-10T06:43:55;4.30;;;3.22;;
37609;SDS011;23457;51.966;8.230;2023-06-10T06:46:29;7.50;;;3.72;;
37609;SDS011;23457;51.966;8.230;2023-06-10T06:48:56;6.63;;;3.15;;
37609;SDS011;23457;51.966;8.230;2023-06-10T06:51:23;8.05;;;3.50;;
37609;SDS011;23457;51.966;8.230;2023-06-10T06:53:49;5.90;;;3.38;;
37609;SDS011;23457;51.966;8.230;2023-06-10T06:56:17;5.65;;;3.15;;
37609;SDS011;23457;51.966;8.230;2023-06-10T06:58:44;10.45;;;3.40;;
37609;SDS011;23457;51.966;8.230;2023-06-10T07:01:10;10.88;;;3.30;;
37609;SDS011;23457;51.966;8.230;2023-06-10T07:03:37;5.28;;;2.70;;
37609;SDS011;23457;51.966;8.230;2023-06-10T07:06:04;4.72;;;3.20;;
37609;SDS011;23457;51.966;8.230;2023-06-10T07:08:31;4.90;;;2.90;;
37609;SDS011;23457;51.966;8.230;2023-06-10T07:10:57;5.53;;;3.35;;
37609;SDS011;23457;51.966;8.230;2023-06-10T07:13:24;5.30;;;3.05;;
37609;SDS011;23457;51.966;8.230;2023-06-10T07:15:51;8.18;;;3.63;;
37609;SDS011;23457;51.966;8.230;2023-06-10T07:18:18;8.48;;;3.35;;
37609;SDS011;23457;51.966;8.230;2023-06-10T07:20:45;5.20;;;2.90;;
37609;SDS011;23457;51.966;8.230;2023-06-10T07:23:11;5.70;;;3.45;;
37609;SDS011;23457;51.966;8.230;2023-06-10T07:25:38;5.03;;;3.40;;
37609;SDS011;23457;51.966;8.230;2023-06-10T07:28:07;10.90;;;3.70;;
37609;SDS011;23457;51.966;8.230;2023-06-10T07:30:33;4.47;;;3.08;;
37609;SDS011;23457;51.966;8.230;2023-06-10T07:33:00;6.85;;;3.45;;
37609;SDS011;23457;51.966;8.230;2023-06-10T07:35:30;7.28;;;3.38;;
37609;SDS011;23457;51.966;8.230;2023-06-10T07:38:01;6.80;;;3.10;;
37609;SDS011;23457;51.966;8.230;2023-06-10T07:40:36;6.53;;;3.30;;
37609;SDS011;23457;51.966;8.230;2023-06-10T07:43:03;6.65;;;3.45;;
37609;SDS011;23457;51.966;8.230;2023-06-10T07:45:31;4.47;;;2.80;;
37609;SDS011;23457;51.966;8.230;2023-06-10T07:48:02;4.30;;;3.13;;
37609;SDS011;23457;51.966;8.230;2023-06-10T07:50:29;6.28;;;3.05;;
37609;SDS011;23457;51.966;8.230;2023-06-10T07:52:55;4.95;;;3.00;;
37609;SDS011;23457;51.966;8.230;2023-06-10T07:55:23;5.20;;;2.47;;
37609;SDS011;23457;51.966;8.230;2023-06-10T08:00:19;3.70;;;2.83;;
37609;SDS011;23457;51.966;8.230;2023-06-10T08:02:47;8.18;;;3.20;;
37609;SDS011;23457;51.966;8.230;2023-06-10T08:05:14;5.38;;;3.25;;
37609;SDS011;23457;51.966;8.230;2023-06-10T08:07:41;7.72;;;3.63;;
37609;SDS011;23457;51.966;8.230;2023-06-10T08:10:09;12.60;;;4.03;;
37609;SDS011;23457;51.966;8.230;2023-06-10T08:12:36;7.22;;;3.35;;
37609;SDS011;23457;51.966;8.230;2023-06-10T08:15:05;6.38;;;3.40;;
37609;SDS011;23457;51.966;8.230;2023-06-10T08:17:35;4.55;;;3.38;;
37609;SDS011;23457;51.966;8.230;2023-06-10T08:20:06;6.30;;;3.63;;
37609;SDS011;23457;51.966;8.230;2023-06-10T08:22:33;6.13;;;3.63;;
37609;SDS011;23457;51.966;8.230;2023-06-10T08:25:00;6.55;;;3.88;;
37609;SDS011;23457;51.966;8.230;2023-06-10T08:27:27;5.28;;;3.17;;
37609;SDS011;23457;51.966;8.230;2023-06-10T08:29:54;7.32;;;3.90;;
37609;SDS011;23457;51.966;8.230;2023-06-10T08:32:20;5.85;;;3.63;;
37609;SDS011;23457;51.966;8.230;2023-06-10T08:34:48;8.23;;;3.65;;
37609;SDS011;23457;51.966;8.230;2023-06-10T08:37:14;8.45;;;3.70;;
37609;SDS011;23457;51.966;8.230;2023-06-10T08:39:41;6.45;;;3.92;;
37609;SDS011;23457;51.966;8.230;2023-06-10T08:44:46;7.72;;;3.85;;
37609;SDS011;23457;51.966;8.230;2023-06-10T08:47:16;7.40;;;3.80;;
37609;SDS011;23457;51.966;8.230;2023-06-10T08:49:44;5.93;;;3.72;;
37609;SDS011;23457;51.966;8.230;2023-06-10T08:52:14;7.90;;;3.80;;
37609;SDS011;23457;51.966;8.230;2023-06-10T08:54:55;5.78;;;3.70;;
37609;SDS011;23457;51.966;8.230;2023-06-10T08:57:26;6.40;;;3.83;;
37609;SDS011;23457;51.966;8.230;2023-06-10T08:59:53;8.07;;;4.10;;
37609;SDS011;23457;51.966;8.230;2023-06-10T09:02:21;8.43;;;3.80;;
37609;SDS011;23457;51.966;8.230;2023-06-10T09:04:49;9.10;;;3.55;;
37609;SDS011;23457;51.966;8.230;2023-06-10T09:07:16;6.85;;;3.70;;
37609;SDS011;23457;51.966;8.230;2023-06-10T09:09:44;5.32;;;3.10;;
37609;SDS011;23457;51.966;8.230;2023-06-10T09:12:14;6.97;;;3.72;;
37609;SDS011;23457;51.966;8.230;2023-06-10T09:14:42;4.70;;;3.40;;
37609;SDS011;23457;51.966;8.230;2023-06-10T09:17:09;6.78;;;3.33;;
37609;SDS011;23457;51.966;8.230;2023-06-10T09:19:36;7.90;;;3.80;;
37609;SDS011;23457;51.966;8.230;2023-06-10T09:22:18;5.40;;;3.28;;
37609;SDS011;23457;51.966;8.230;2023-06-10T09:24:46;7.35;;;3.92;;
37609;SDS011;23457;51.966;8.230;2023-06-10T09:27:13;8.87;;;3.47;;
37609;SDS011;23457;51.966;8.230;2023-06-10T09:29:55;6.57;;;3.63;;
37609;SDS011;23457;51.966;8.230;2023-06-10T09:32:24;6.45;;;3.75;;
37609;SDS011;23457;51.966;8.230;2023-06-10T09:34:51;8.55;;;3.65;;
37609;SDS011;23457;51.966;8.230;2023-06-10T09:37:24;7.00;;;3.72;;
37609;SDS011;23457;51.966;8.230;2023-06-10T09:40:03;6.90;;;3.75;;
37609;SDS011;23457;51.966;8.230;2023-06-10T09:42:36;8.00;;;4.03;;
37609;SDS011;23457;51.966;8.230;2023-06-10T09:45:06;7.53;;;3.83;;
37609;SDS011;23457;51.966;8.230;2023-06-10T09:47:33;6.50;;;3.70;;
37609;SDS011;23457;51.966;8.230;2023-06-10T09:50:01;8.68;;;3.65;;
37609;SDS011;23457;51.966;8.230;2023-06-10T09:52:28;6.57;;;3.63;;
37609;SDS011;23457;51.966;8.230;2023-06-10T09:54:59;6.30;;;3.90;;
37609;SDS011;23457;51.966;8.230;2023-06-10T09:57:31;10.52;;;3.53;;
37609;SDS011;23457;51.966;8.230;2023-06-10T10:00:03;6.60;;;3.42;;
37609;SDS011;23457;51.966;8.230;2023-06-10T10:02:46;6.00;;;3.60;;
37609;SDS011;23457;51.966;8.230;2023-06-10T10:05:15;7.90;;;3.65;;
37609;SDS011;23457;51.966;8.230;2023-06-10T10:07:43;8.43;;;3.90;;
37609;SDS011;23457;51.966;8.230;2023-06-10T10:10:12;7.50;;;4.47;;
37609;SDS011;23457;51.966;8.230;2023-06-10T10:12:41;5.18;;;3.60;;
37609;SDS011;23457;51.966;8.230;2023-06-10T10:15:12;9.15;;;3.75;;
37609;SDS011;23457;51.966;8.230;2023-06-10T10:17:40;6.53;;;3.63;;
37609;SDS011;23457;51.966;8.230;2023-06-10T10:20:17;8.45;;;4.18;;
37609;SDS011;23457;51.966;8.230;2023-06-10T10:22:56;6.72;;;3.70;;
37609;SDS011;23457;51.966;8.230;2023-06-10T10:25:27;5.50;;;3.58;;
37609;SDS011;23457;51.966;8.230;2023-06-10T10:28:06;5.80;;;3.72;;
37609;SDS011;23457;51.966;8.230;2023-06-10T10:30:44;5.93;;;3.53;;
37609;SDS011;23457;51.966;8.230;2023-06-10T10:36:04;6.25;;;3.42;;
37609;SDS011;23457;51.966;8.230;2023-06-10T10:41:05;5.28;;;3.50;;
37609;SDS011;23457;51.966;8.230;2023-06-10T10:43:33;8.23;;;3.60;;
37609;SDS011;23457;51.966;8.230;2023-06-10T10:46:00;6.65;;;3.22;;
37609;SDS011;23457;51.966;8.230;2023-06-10T10:48:37;4.90;;;3.78;;
37609;SDS011;23457;51.966;8.230;2023-06-10T10:51:04;5.82;;;3.70;;
37609;SDS011;23457;51.966;8.230;2023-06-10T10:53:31;6.20;;;3.70;;
37609;SDS011;23457;51.966;8.230;2023-06-10T10:56:04;7.43;;;4.00;;
37609;SDS011;23457;51.966;8.230;2023-06-10T10:58:31;8.38;;;4.13;;
37609;SDS011;23457;51.966;8.230;2023-06-10T11:00:58;5.57;;;3.75;;
37609;SDS011;23457;51.966;8.230;2023-06-10T11:03:30;6.32;;;3.75;;
37609;SDS011;23457;51.966;8.230;2023-06-10T11:06:11;7.18;;;4.57;;
37609;SDS011;23457;51.966;8.230;2023-06-10T11:16:32;6.65;;;4.00;;
37609;SDS011;23457;51.966;8.230;2023-06-10T11:19:05;7.75;;;4.05;;
37609;SDS011;23457;51.966;8.230;2023-06-10T11:21:39;7.65;;;4.10;;
37609;SDS011;23457;51.966;8.230;2023-06-10T11:24:24;6.90;;;4.15;;
37609;SDS011;23457;51.966;8.230;2023-06-10T11:26:52;10.30;;;4.57;;
37609;SDS011;23457;51.966;8.230;2023-06-10T11:29:19;6.50;;;4.00;;
37609;SDS011;23457;51.966;8.230;2023-06-10T11:31:51;4.70;;;4.20;;
37609;SDS011;23457;51.966;8.230;2023-06-10T11:34:22;5.57;;;3.78;;
37609;SDS011;23457;51.966;8.230;2023-06-10T11:39:18;7.43;;;3.88;;
37609;SDS011;23457;51.966;8.230;2023-06-10T11:41:46;5.28;;;3.97;;
37609;SDS011;23457;51.966;8.230;2023-06-10T11:44:14;6.10;;;4.22;;
37609;SDS011;23457;51.966;8.230;2023-06-10T11:46:47;5.93;;;3.75;;
37609;SDS011;23457;51.966;8.230;2023-06-10T11:49:15;8.73;;;4.10;;
37609;SDS011;23457;51.966;8.230;2023-06-10T11:51:42;13.52;;;4.88;;
37609;SDS011;23457;51.966;8.230;2023-06-10T11:54:16;6.57;;;3.97;;
37609;SDS011;23457;51.966;8.230;2023-06-10T11:56:43;9.68;;;3.90;;
37609;SDS011;23457;51.966;8.230;2023-06-10T11:59:11;8.23;;;4.55;;
37609;SDS011;23457;51.966;8.230;2023-06-10T12:01:46;9.77;;;4.28;;
37609;SDS011;23457;51.966;8.230;2023-06-10T12:04:18;8.02;;;4.40;;
37609;SDS011;23457;51.966;8.230;2023-06-10T12:06:46;5.40;;;3.72;;
37609;SDS011;23457;51.966;8.230;2023-06-10T12:09:22;8.63;;;4.22;;
37609;SDS011;23457;51.966;8.230;2023-06-10T12:19:58;6.32;;;4.13;;
37609;SDS011;23457;51.966;8.230;2023-06-10T12:22:36;6.30;;;4.15;;
37609;SDS011;23457;51.966;8.230;2023-06-10T12:25:14;7.85;;;4.47;;
37609;SDS011;23457;51.966;8.230;2023-06-10T12:27:51;9.27;;;4.22;;
37609;SDS011;23457;51.966;8.230;2023-06-10T12:30:22;7.47;;;4.05;;
37609;SDS011;23457;51.966;8.230;2023-06-10T12:32:53;8.23;;;4.35;;
37609;SDS011;23457;51.966;8.230;2023-06-10T12:35:25;6.97;;;4.25;;
37609;SDS011;23457;51.966;8.230;2023-06-10T12:38:04;7.80;;;4.40;;
37609;SDS011;23457;51.966;8.230;2023-06-10T12:40:34;5.43;;;4.30;;
37609;SDS011;23457;51.966;8.230;2023-06-10T12:43:06;6.68;;;4.43;;
37609;SDS011;23457;51.966;8.230;2023-06-10T12:45:33;7.35;;;4.45;;
37609;SDS011;23457;51.966;8.230;2023-06-10T12:48:10;7.65;;;4.20;;
37609;SDS011;23457;51.966;8.230;2023-06-10T12:50:51;8.13;;;4.05;;
37609;SDS011;23457;51.966;8.230;2023-06-10T12:53:19;6.00;;;4.20;;
37609;SDS011;23457;51.966;8.230;2023-06-10T12:55:47;7.03;;;4.40;;
37609;SDS011;23457;51.966;8.230;2023-06-10T12:58:14;5.38;;;3.83;;
37609;SDS011;23457;51.966;8.230;2023-06-10T13:00:41;7.65;;;4.10;;
37609;SDS011;23457;51.966;8.230;2023-06-10T13:03:12;7.75;;;4.60;;
37609;SDS011;23457;51.966;8.230;2023-06-10T13:05:39;8.38;;;4.40;;
37609;SDS011;23457;51.966;8.230;2023-06-10T13:08:06;7.57;;;4.07;;
37609;SDS011;23457;51.966;8.230;2023-06-10T13:10:36;8.00;;;4.30;;
37609;SDS011;23457;51.966;8.230;2023-06-10T13:13:03;6.15;;;4.35;;
37609;SDS011;23457;51.966;8.230;2023-06-10T13:15:32;7.40;;;4.13;;
37609;SDS011;23457;51.966;8.230;2023-06-10T13:18:11;7.63;;;4.22;;
37609;SDS011;23457;51.966;8.230;2023-06-10T13:20:39;7.47;;;4.57;;
37609;SDS011;23457;51.966;8.230;2023-06-10T13:23:06;8.73;;;3.97;;
37609;SDS011;23457;51.966;8.230;2023-06-10T13:25:33;8.07;;;4.20;;
37609;SDS011;23457;51.966;8.230;2023-06-10T13:28:00;9.73;;;3.90;;
37609;SDS011;23457;51.966;8.230;2023-06-10T13:30:27;6.88;;;4.18;;
37609;SDS011;23457;51.966;8.230;2023-06-10T13:32:57;4.95;;;3.78;;
37609;SDS011;23457;51.966;8.230;2023-06-10T13:35:24;5.55;;;4.35;;
37609;SDS011;23457;51.966;8.230;2023-06-10T13:37:51;7.28;;;4.40;;
37609;SDS011;23457;51.966;8.230;2023-06-10T13:40:18;10.02;;;4.30;;
37609;SDS011;23457;51.966;8.230;2023-06-10T13:42:46;4.85;;;4.05;;
37609;SDS011;23457;51.966;8.230;2023-06-10T13:45:18;8.38;;;4.38;;
37609;SDS011;23457;51.966;8.230;2023-06-10T13:47:52;9.93;;;4.90;;
37609;SDS011;23457;51.966;8.230;2023-06-10T13:50:19;7.70;;;4.68;;
37609;SDS011;23457;51.966;8.230;2023-06-10T13:52:48;7.70;;;4.03;;
37609;SDS011;23457;51.966;8.230;2023-06-10T13:55:22;8.25;;;4.18;;
37609;SDS011;23457;51.966;8.230;2023-06-10T13:57:51;6.43;;;4.72;;
37609;SDS011;23457;51.966;8.230;2023-06-10T14:00:17;9.48;;;4.55;;
37609;SDS011;23457;51.966;8.230;2023-06-10T14:02:45;9.30;;;4.07;;
37609;SDS011;23457;51.966;8.230;2023-06-10T14:05:15;12.65;;;4.53;;
37609;SDS011;23457;51.966;8.230;2023-06-10T14:10:19;7.72;;;4.40;;
37609;SDS011;23457;51.966;8.230;2023-06-10T14:15:16;7.57;;;4.22;;
37609;SDS011;23457;51.966;8.230;2023-06-10T14:17:43;10.55;;;4.57;;
37609;SDS011;23457;51.966;8.230;2023-06-10T14:20:11;8.60;;;5.10;;
37609;SDS011;23457;51.966;8.230;2023-06-10T14:22:42;6.18;;;4.10;;
37609;SDS011;23457;51.966;8.230;2023-06-10T14:25:09;8.65;;;4.47;;
37609;SDS011;23457;51.966;8.230;2023-06-10T14:30:07;5.72;;;4.13;;
37609;SDS011;23457;51.966;8.230;2023-06-10T14:32:35;8.00;;;4.53;;
37609;SDS011;23457;51.966;8.230;2023-06-10T14:35:02;6.47;;;4.28;;
37609;SDS011;23457;51.966;8.230;2023-06-10T14:37:29;8.98;;;4.63;;
37609;SDS011;23457;51.966;8.230;2023-06-10T14:39:56;9.68;;;4.40;;
37609;SDS011;23457;51.966;8.230;2023-06-10T14:42:23;9.60;;;4.25;;
37609;SDS011;23457;51.966;8.230;2023-06-10T14:44:50;7.82;;;4.00;;
37609;SDS011;23457;51.966;8.230;2023-06-10T14:47:17;8.88;;;4.50;;
37609;SDS011;23457;51.966;8.230;2023-06-10T14:49:47;8.88;;;4.25;;
37609;SDS011;23457;51.966;8.230;2023-06-10T14:52:14;8.00;;;4.25;;
37609;SDS011;23457;51.966;8.230;2023-06-10T14:54:41;11.32;;;4.45;;
37609;SDS011;23457;51.966;8.230;2023-06-10T14:57:08;6.85;;;4.40;;
37609;SDS011;23457;51.966;8.230;2023-06-10T14:59:37;10.40;;;4.78;;
37609;SDS011;23457;51.966;8.230;2023-06-10T15:02:04;7.65;;;4.38;;
37609;SDS011;23457;51.966;8.230;2023-06-10T15:04:32;6.88;;;4.85;;
37609;SDS011;23457;51.966;8.230;2023-06-10T15:07:00;8.15;;;4.47;;
37609;SDS011;23457;51.966;8.230;2023-06-10T15:09:31;4.97;;;3.85;;
37609;SDS011;23457;51.966;8.230;2023-06-10T15:11:58;7.20;;;4.82;;
37609;SDS011;23457;51.966;8.230;2023-06-10T15:14:26;7.07;;;4.70;;
37609;SDS011;23457;51.966;8.230;2023-06-10T15:16:53;7.47;;;4.72;;
37609;SDS011;23457;51.966;8.230;2023-06-10T15:19:20;5.65;;;4.55;;
37609;SDS011;23457;51.966;8.230;2023-06-10T15:21:46;5.47;;;4.60;;
37609;SDS011;23457;51.966;8.230;2023-06-10T15:24:14;7.13;;;4.68;;
37609;SDS011;23457;51.966;8.230;2023-06-10T15:26:45;8.85;;;4.72;;
37609;SDS011;23457;51.966;8.230;2023-06-10T15:29:12;11.52;;;5.03;;
37609;SDS011;23457;51.966;8.230;2023-06-10T15:31:39;8.75;;;4.70;;
37609;SDS011;23457;51.966;8.230;2023-06-10T15:34:06;7.38;;;4.35;;
37609;SDS011;23457;51.966;8.230;2023-06-10T15:36:34;5.55;;;4.85;;
37609;SDS011;23457;51.966;8.230;2023-06-10T15:39:07;7.07;;;5.18;;
37609;SDS011;23457;51.966;8.230;2023-06-10T15:41:38;8.02;;;4.90;;